createdAt,value
2019-04-30T00:01:59.036Z,18.37
2019-04-30T00:05:22.012Z,18.43
2019-04-30T00:08:06.656Z,18.57
2019-04-30T00:10:50.904Z,18.70
2019-04-30T00:13:45.913Z,18.97
2019-04-30T00:16:40.257Z,18.97
2019-04-30T00:19:25.925Z,19.50
2019-04-30T00:22:31.032Z,19.57
2019-04-30T00:25:05.837Z,20.00
2019-04-30T00:27:50.443Z,19.83
2019-04-30T00:30:35.158Z,19.47
2019-04-30T00:33:22.298Z,20.03
2019-04-30T00:36:07.748Z,18.43
2019-04-30T00:38:52.249Z,19.20
2019-04-30T00:41:47.501Z,19.90
2019-04-30T00:44:32.539Z,20.20
2019-04-30T00:47:17.647Z,21.10
2019-04-30T00:50:02.404Z,21.00
2019-04-30T00:52:46.555Z,20.83
2019-04-30T00:55:31.352Z,21.40
2019-04-30T00:58:19.708Z,21.70
2019-04-30T01:04:48.491Z,21.27
2019-04-30T01:07:32.954Z,21.00
2019-04-30T01:10:19.548Z,21.83
2019-04-30T01:13:08.005Z,22.30
2019-04-30T01:15:52.474Z,23.83
2019-04-30T01:18:38.926Z,22.63
2019-04-30T01:21:33.343Z,22.17
2019-04-30T01:24:19.010Z,22.87
2019-04-30T01:27:06.917Z,23.40
2019-04-30T01:29:50.477Z,22.77
2019-04-30T01:32:35.488Z,23.90
2019-04-30T01:35:19.647Z,23.73
2019-04-30T01:38:12.969Z,23.23
2019-04-30T01:40:59.498Z,24.30
2019-04-30T01:43:43.626Z,23.70
2019-04-30T01:46:36.916Z,23.47
2019-04-30T01:49:25.775Z,23.67
2019-04-30T01:52:09.567Z,23.20
2019-04-30T01:54:54.323Z,24.20
2019-04-30T02:00:49.334Z,24.17
2019-04-30T02:04:09.845Z,22.33
2019-04-30T02:06:54.261Z,23.17
2019-04-30T02:09:39.215Z,24.53
2019-04-30T02:12:23.594Z,23.83
2019-04-30T02:15:09.492Z,23.53
2019-04-30T02:18:03.304Z,22.63
2019-04-30T02:20:49.649Z,23.83
2019-04-30T02:23:34.679Z,24.10
2019-04-30T02:26:19.317Z,23.87
2019-04-30T02:29:03.861Z,23.37
2019-04-30T02:31:50.431Z,23.83
2019-04-30T02:34:44.059Z,23.87
2019-04-30T02:38:22.625Z,23.97
2019-04-30T02:41:09.822Z,22.77
2019-04-30T02:44:02.716Z,22.37
2019-04-30T02:46:50.309Z,21.57
2019-04-30T02:49:34.341Z,22.30
2019-04-30T02:52:19.632Z,23.03
2019-04-30T02:55:13.412Z,21.30
2019-04-30T02:57:59.592Z,19.53
2019-04-30T03:00:43.951Z,19.30
2019-04-30T03:03:29.946Z,19.90
2019-04-30T03:06:26.263Z,18.57
2019-04-30T03:09:11.000Z,19.13
2019-04-30T03:11:55.452Z,18.57
2019-04-30T03:14:50.214Z,19.43
2019-04-30T03:17:54.184Z,20.30
2019-04-30T03:21:00.970Z,20.40
2019-04-30T03:23:45.845Z,19.63
2019-04-30T03:26:30.428Z,20.50
2019-04-30T03:29:15.249Z,19.93
2019-04-30T03:32:02.949Z,20.67
2019-04-30T03:34:55.045Z,21.47
2019-04-30T03:37:40.042Z,21.10
2019-04-30T03:40:24.935Z,21.30
2019-04-30T03:43:10.476Z,23.03
2019-04-30T03:45:55.664Z,21.73
2019-04-30T03:48:40.477Z,20.20
2019-04-30T03:51:24.891Z,19.90
2019-04-30T03:54:10.293Z,19.53
2019-04-30T03:56:57.027Z,20.43
2019-04-30T03:59:50.434Z,21.20
2019-04-30T04:06:26.388Z,19.43
2019-04-30T04:09:33.905Z,20.43
2019-04-30T04:12:21.949Z,21.93
2019-04-30T04:15:06.362Z,21.07
2019-04-30T04:18:00.327Z,22.37
2019-04-30T04:21:07.517Z,20.83
2019-04-30T04:23:40.189Z,20.83
2019-04-30T04:26:24.723Z,22.50
2019-04-30T04:29:12.472Z,21.80
2019-04-30T04:31:56.181Z,21.53
2019-04-30T04:34:40.584Z,22.27
2019-04-30T04:37:25.349Z,21.93
2019-04-30T04:40:09.808Z,21.20
2019-04-30T04:43:03.460Z,21.03
2019-04-30T04:45:49.819Z,20.63
2019-04-30T04:48:34.496Z,21.50
2019-04-30T04:51:33.394Z,20.63
2019-04-30T04:54:05.178Z,22.50
2019-04-30T04:56:53.341Z,22.33
2019-04-30T04:59:36.848Z,21.30
2019-04-30T05:02:40.448Z,21.83
2019-04-30T05:05:24.915Z,22.03
2019-04-30T05:08:18.595Z,20.20
2019-04-30T05:11:02.849Z,22.03
2019-04-30T05:13:49.037Z,22.47
2019-04-30T05:16:33.311Z,23.40
2019-04-30T05:19:28.612Z,24.27
2019-04-30T05:22:13.507Z,24.40
2019-04-30T05:24:59.000Z,24.43
2019-04-30T05:27:43.732Z,24.20
2019-04-30T05:30:36.956Z,24.13
2019-04-30T05:33:21.663Z,23.83
2019-04-30T05:36:06.399Z,23.53
2019-04-30T05:38:51.004Z,23.93
2019-04-30T05:41:35.584Z,24.23
2019-04-30T05:44:29.843Z,23.50
2019-04-30T05:47:14.787Z,24.80
2019-04-30T05:49:59.534Z,23.83
2019-04-30T05:52:44.071Z,23.77
2019-04-30T05:55:39.375Z,24.63
2019-04-30T05:58:24.056Z,22.80
2019-04-30T06:01:09.683Z,23.83
2019-04-30T06:03:54.568Z,23.33
2019-04-30T06:06:39.040Z,24.27
2019-04-30T06:09:59.584Z,24.57
2019-04-30T06:16:31.833Z,23.37
2019-04-30T06:19:19.509Z,23.53
2019-04-30T06:22:07.486Z,21.97
2019-04-30T06:24:50.080Z,23.33
2019-04-30T06:27:34.692Z,23.93
2019-04-30T06:30:19.823Z,24.67
2019-04-30T06:33:04.640Z,25.73
2019-04-30T06:35:49.407Z,24.03
2019-04-30T06:38:34.575Z,24.83
2019-04-30T06:41:19.789Z,24.83
2019-04-30T06:44:13.162Z,24.53
2019-04-30T06:46:58.789Z,24.10
2019-04-30T06:49:43.743Z,23.77
2019-04-30T06:52:39.000Z,24.40
2019-04-30T06:55:23.560Z,24.77
2019-04-30T06:58:14.669Z,24.57
2019-04-30T07:00:54.451Z,22.63
2019-04-30T07:03:38.991Z,24.07
2019-04-30T07:06:29.567Z,24.77
2019-04-30T07:09:49.891Z,22.47
2019-04-30T07:12:39.028Z,23.60
2019-04-30T07:15:48.975Z,22.47
2019-04-30T07:18:33.495Z,23.47
2019-04-30T07:21:19.885Z,23.50
2019-04-30T07:24:03.935Z,22.23
2019-04-30T07:27:01.011Z,23.60
2019-04-30T07:29:44.123Z,23.23
2019-04-30T07:32:28.882Z,23.47
2019-04-30T07:35:14.516Z,23.17
2019-04-30T07:38:09.304Z,22.70
2019-04-30T07:40:54.224Z,22.87
2019-04-30T07:43:39.502Z,24.80
2019-04-30T07:46:35.258Z,23.10
2019-04-30T07:49:46.453Z,24.17
2019-04-30T07:52:15.262Z,23.20
2019-04-30T07:55:00.651Z,23.00
2019-04-30T07:57:54.020Z,23.80
2019-04-30T08:00:40.351Z,22.10
2019-04-30T08:06:59.697Z,24.30
2019-04-30T08:09:45.776Z,22.73
2019-04-30T08:12:35.218Z,21.73
2019-04-30T08:15:16.932Z,22.60
2019-04-30T08:18:05.545Z,23.83
2019-04-30T08:20:49.032Z,23.77
2019-04-30T08:23:42.093Z,22.03
2019-04-30T08:26:28.522Z,22.70
2019-04-30T08:29:12.977Z,22.77
2019-04-30T08:31:59.362Z,22.53
2019-04-30T08:34:44.356Z,21.97
2019-04-30T08:37:28.936Z,22.60
2019-04-30T08:40:13.855Z,21.77
2019-04-30T08:42:59.456Z,20.77
2019-04-30T08:45:53.267Z,21.70
2019-04-30T08:48:50.053Z,23.40
2019-04-30T08:51:24.638Z,23.33
2019-04-30T08:54:09.645Z,23.07
2019-04-30T08:57:03.380Z,22.27
2019-04-30T08:59:49.503Z,23.07
2019-04-30T09:02:33.695Z,23.60
2019-04-30T09:05:45.951Z,24.27
2019-04-30T09:08:51.419Z,21.73
2019-04-30T09:11:49.978Z,23.90
2019-04-30T09:14:22.872Z,22.30
2019-04-30T09:17:09.243Z,22.10
2019-04-30T09:19:53.968Z,22.53
2019-04-30T09:22:39.365Z,23.40
2019-04-30T09:25:23.465Z,24.37
2019-04-30T09:28:08.705Z,23.20
2019-04-30T09:30:53.367Z,23.10
2019-04-30T09:33:39.382Z,22.47
2019-04-30T09:36:33.724Z,21.83
2019-04-30T09:39:19.907Z,22.63
2019-04-30T09:42:04.963Z,22.23
2019-04-30T09:44:50.108Z,22.77
2019-04-30T09:47:34.799Z,22.50
2019-04-30T09:50:19.476Z,21.77
2019-04-30T09:53:04.362Z,21.77
2019-04-30T09:55:38.938Z,22.20
2019-04-30T09:58:30.036Z,21.90
2019-04-30T10:01:23.344Z,21.63
2019-04-30T10:04:09.908Z,20.77
2019-04-30T10:06:54.808Z,21.93
2019-04-30T10:09:39.295Z,22.30
2019-04-30T10:12:23.744Z,22.73
2019-04-30T10:15:09.151Z,23.70
2019-04-30T10:17:53.533Z,21.50
2019-04-30T10:20:37.863Z,22.57
2019-04-30T10:23:31.159Z,22.97
2019-04-30T10:26:15.800Z,21.33
2019-04-30T10:29:00.408Z,20.77
2019-04-30T10:31:45.459Z,22.67
2019-04-30T10:34:29.639Z,22.07
2019-04-30T10:37:23.347Z,21.33
2019-04-30T10:40:10.118Z,20.30
2019-04-30T10:43:03.696Z,19.67
2019-04-30T10:45:48.638Z,20.57
2019-04-30T10:48:33.526Z,20.27
2019-04-30T10:51:18.960Z,19.93
2019-04-30T10:54:05.004Z,20.20
2019-04-30T10:56:51.388Z,22.87
2019-04-30T10:59:44.949Z,21.43
2019-04-30T11:02:31.168Z,20.47
2019-04-30T11:05:16.372Z,20.87
2019-04-30T11:08:00.516Z,21.80
2019-04-30T11:10:45.387Z,20.60
2019-04-30T11:13:30.051Z,20.93
2019-04-30T11:16:15.633Z,21.13
2019-04-30T11:19:00.809Z,19.73
2019-04-30T11:21:46.149Z,19.70
2019-04-30T11:24:37.911Z,20.37
2019-04-30T11:27:18.394Z,20.30
2019-04-30T11:30:04.240Z,19.37
2019-04-30T11:32:50.253Z,19.73
2019-04-30T11:35:35.011Z,18.97
2019-04-30T11:38:20.548Z,18.77
2019-04-30T11:41:05.168Z,18.73
2019-04-30T11:43:49.869Z,19.03
2019-04-30T11:46:34.390Z,17.40
2019-04-30T11:49:18.760Z,17.90
2019-04-30T11:52:03.204Z,16.83
2019-04-30T11:54:56.936Z,16.57
2019-04-30T11:57:41.183Z,16.93
2019-04-30T12:00:31.804Z,17.50
2019-04-30T12:03:35.155Z,16.80
2019-04-30T12:06:20.119Z,15.97
2019-04-30T12:09:23.631Z,16.47
2019-04-30T12:12:09.166Z,16.77
2019-04-30T12:14:53.871Z,17.53
2019-04-30T12:17:38.443Z,18.17
2019-04-30T12:20:23.336Z,17.97
2019-04-30T12:23:11.342Z,16.67
2019-04-30T12:25:54.491Z,16.67
2019-04-30T12:28:38.940Z,16.63
2019-04-30T12:31:23.745Z,16.17
2019-04-30T12:34:08.512Z,14.70
2019-04-30T12:36:53.427Z,15.90
2019-04-30T12:39:39.425Z,15.83
2019-04-30T12:42:32.923Z,15.40
2019-04-30T12:45:19.313Z,15.20
2019-04-30T12:48:09.368Z,14.27
2019-04-30T12:58:03.391Z,14.70
2019-04-30T13:00:59.036Z,13.60
2019-04-30T13:03:55.747Z,14.13
2019-04-30T13:06:30.113Z,13.80
2019-04-30T13:09:24.749Z,14.47
2019-04-30T13:12:18.747Z,13.23
2019-04-30T13:15:12.300Z,13.50
2019-04-30T13:17:58.502Z,12.63
2019-04-30T13:20:42.927Z,11.97
2019-04-30T13:23:36.596Z,13.30
2019-04-30T13:26:21.006Z,12.87
2019-04-30T13:29:10.533Z,13.10
2019-04-30T13:31:54.783Z,12.93
2019-04-30T13:34:48.152Z,12.70
2019-04-30T13:44:13.137Z,12.07
2019-04-30T13:46:57.752Z,12.73
2019-04-30T13:49:41.962Z,13.00
2019-04-30T13:52:41.459Z,12.33
2019-04-30T13:55:25.883Z,12.47
2019-04-30T13:58:10.731Z,12.20
2019-04-30T14:01:04.967Z,11.77
2019-04-30T14:10:33.256Z,11.33
2019-04-30T14:13:18.253Z,11.47
2019-04-30T14:16:11.900Z,11.13
2019-04-30T14:18:58.551Z,12.57
2019-04-30T14:21:43.468Z,12.37
2019-04-30T14:24:28.191Z,13.27
2019-04-30T14:27:12.576Z,13.27
2019-04-30T14:29:57.095Z,11.90
2019-04-30T14:32:41.449Z,11.93
2019-04-30T14:35:34.999Z,12.97
2019-04-30T14:38:19.664Z,12.03
2019-04-30T14:41:04.723Z,13.00
2019-04-30T14:44:04.910Z,12.20
2019-04-30T14:47:33.615Z,11.50
2019-04-30T14:50:20.320Z,11.00
2019-04-30T14:54:11.064Z,11.03
2019-04-30T14:57:15.491Z,10.80
2019-04-30T15:03:40.815Z,11.37
2019-04-30T15:06:25.327Z,10.87
2019-04-30T15:09:11.183Z,12.20
2019-04-30T15:12:05.041Z,11.33
2019-04-30T15:14:49.595Z,11.47
2019-04-30T15:17:34.366Z,11.93
2019-04-30T15:20:19.673Z,11.83
2019-04-30T15:23:31.937Z,10.50
2019-04-30T15:26:23.019Z,10.73
2019-04-30T15:29:10.232Z,11.00
2019-04-30T15:31:50.084Z,10.80
2019-04-30T15:34:34.515Z,13.30
2019-04-30T15:37:23.662Z,10.97
2019-04-30T15:40:06.467Z,12.87
2019-04-30T15:43:02.472Z,12.17
2019-04-30T15:45:57.349Z,12.37
2019-04-30T15:48:52.042Z,12.87
2019-04-30T15:51:36.864Z,11.77
2019-04-30T15:54:21.899Z,11.60
2019-04-30T15:57:15.512Z,11.80
2019-04-30T16:00:00.236Z,11.57
2019-04-30T16:06:18.595Z,12.00
2019-04-30T16:09:18.248Z,11.27
2019-04-30T16:15:29.754Z,12.90
2019-04-30T16:18:15.404Z,11.80
2019-04-30T16:21:19.206Z,13.40
2019-04-30T16:24:12.507Z,12.13
2019-04-30T16:26:59.169Z,12.90
2019-04-30T16:29:43.396Z,12.03
2019-04-30T16:32:28.356Z,11.47
2019-04-30T16:35:13.123Z,12.03
2019-04-30T16:38:09.225Z,12.70
2019-04-30T16:40:53.471Z,11.23
2019-04-30T16:43:38.844Z,11.30
2019-04-30T16:46:23.870Z,11.30
2019-04-30T16:49:13.324Z,11.10
2019-04-30T16:52:05.956Z,11.27
2019-04-30T16:54:50.769Z,10.63
2019-04-30T16:57:35.623Z,11.50
2019-04-30T17:00:20.555Z,11.10
2019-04-30T17:03:20.762Z,11.33
2019-04-30T17:09:24.795Z,10.77
2019-04-30T17:12:14.947Z,11.23
2019-04-30T17:15:19.367Z,11.13
2019-04-30T17:18:19.608Z,10.60
2019-04-30T17:21:04.020Z,9.83
2019-04-30T17:23:50.987Z,10.30
2019-04-30T17:26:35.471Z,10.27
2019-04-30T17:29:20.015Z,10.40
2019-04-30T17:32:04.767Z,10.40
2019-04-30T17:34:49.282Z,10.27
2019-04-30T17:37:43.980Z,9.97
2019-04-30T17:40:38.961Z,11.70
2019-04-30T17:43:24.455Z,10.93
2019-04-30T17:46:20.136Z,10.23
2019-04-30T17:49:05.032Z,10.13
2019-04-30T17:51:59.206Z,9.10
2019-04-30T17:54:53.003Z,10.13
2019-04-30T17:57:40.075Z,10.40
2019-04-30T18:00:34.863Z,10.93
2019-04-30T18:03:19.175Z,10.20
2019-04-30T18:06:03.714Z,10.20
2019-04-30T18:08:57.220Z,9.53
2019-04-30T18:11:42.349Z,8.57
2019-04-30T18:14:28.562Z,8.30
2019-04-30T18:17:14.710Z,8.10
2019-04-30T18:23:58.560Z,8.37
2019-04-30T18:30:13.263Z,20.73
2019-04-30T18:32:58.588Z,35.60
2019-04-30T18:35:44.115Z,42.87
2019-04-30T18:38:30.935Z,27.40
2019-04-30T18:41:15.640Z,28.47
2019-04-30T18:44:00.580Z,30.33
2019-04-30T18:46:45.009Z,20.70
2019-04-30T18:49:29.548Z,14.67
2019-04-30T18:52:22.171Z,14.03
2019-04-30T18:55:15.756Z,10.33
2019-04-30T18:58:02.024Z,10.43
2019-04-30T19:00:46.279Z,9.77
2019-04-30T19:03:31.103Z,9.77
2019-04-30T19:06:24.722Z,9.70
2019-04-30T19:09:49.100Z,9.33
2019-04-30T19:19:46.866Z,9.07
2019-04-30T19:22:48.719Z,10.17
2019-04-30T19:25:42.188Z,9.73
2019-04-30T19:28:28.621Z,9.47
2019-04-30T19:31:13.997Z,9.80
2019-04-30T19:34:07.319Z,9.73
2019-04-30T19:36:54.852Z,9.43
2019-04-30T19:39:48.387Z,10.17
2019-04-30T19:42:34.373Z,9.93
2019-04-30T19:45:19.252Z,9.70
2019-04-30T19:48:16.018Z,9.93
2019-04-30T19:50:59.768Z,9.37
2019-04-30T19:53:44.506Z,10.53
2019-04-30T19:56:30.295Z,9.20
2019-04-30T19:59:15.047Z,11.13
2019-04-30T20:02:10.675Z,10.77
2019-04-30T20:05:04.244Z,10.53
2019-04-30T20:07:49.406Z,10.30
2019-04-30T20:10:34.099Z,11.67
2019-04-30T20:13:30.634Z,11.27
2019-04-30T20:16:04.456Z,11.23
2019-04-30T20:18:50.356Z,11.33
2019-04-30T20:21:48.741Z,11.00
2019-04-30T20:24:29.763Z,10.63
2019-04-30T20:27:23.175Z,12.03
2019-04-30T20:30:09.580Z,10.57
2019-04-30T20:32:53.976Z,10.70
2019-04-30T20:35:48.861Z,10.47
2019-04-30T20:39:03.884Z,11.43
2019-04-30T20:42:06.043Z,12.07
2019-04-30T20:44:59.860Z,12.17
2019-04-30T20:47:44.656Z,13.47
2019-04-30T20:50:29.362Z,11.67
2019-04-30T20:53:14.372Z,13.27
2019-04-30T20:55:59.356Z,14.20
2019-04-30T20:58:57.430Z,13.50
2019-04-30T21:01:49.073Z,14.37
2019-04-30T21:04:43.124Z,12.77
2019-04-30T21:07:28.000Z,13.20
2019-04-30T21:10:12.822Z,12.87
2019-04-30T21:12:46.039Z,13.73
2019-04-30T21:15:19.937Z,12.97
2019-04-30T21:17:53.168Z,13.10
2019-04-30T21:20:26.127Z,12.83
2019-04-30T21:23:19.655Z,13.63
2019-04-30T21:26:04.429Z,13.23
2019-04-30T21:28:49.489Z,12.53
2019-04-30T21:32:05.115Z,12.50
2019-04-30T21:35:23.551Z,14.93
2019-04-30T21:38:09.395Z,15.37
2019-04-30T21:40:55.682Z,14.57
2019-04-30T21:43:49.272Z,15.53
2019-04-30T21:46:33.440Z,14.43
2019-04-30T21:49:18.107Z,13.47
2019-04-30T21:52:02.738Z,12.63
2019-04-30T21:54:48.694Z,11.90
2019-04-30T21:57:42.955Z,12.00
2019-04-30T22:00:55.780Z,13.00
2019-04-30T22:03:42.216Z,11.00
2019-04-30T22:06:27.064Z,10.10
2019-04-30T22:09:12.187Z,9.90
2019-04-30T22:11:59.196Z,11.30
2019-04-30T22:14:43.792Z,10.63
2019-04-30T22:17:39.098Z,12.17
2019-04-30T22:20:23.500Z,12.10
2019-04-30T22:23:08.247Z,12.40
2019-04-30T22:25:52.954Z,12.70
2019-04-30T22:28:39.113Z,12.83
2019-04-30T22:31:23.715Z,13.00
2019-04-30T22:34:17.180Z,12.97
2019-04-30T22:37:01.871Z,12.63
2019-04-30T22:39:53.254Z,12.37
2019-04-30T22:42:39.715Z,12.33
2019-04-30T22:45:29.276Z,11.80
2019-04-30T22:48:13.674Z,11.73
2019-04-30T22:50:58.363Z,11.97
2019-04-30T22:53:42.963Z,13.60
2019-04-30T22:56:27.846Z,12.83
2019-04-30T22:59:12.767Z,12.17
2019-04-30T23:02:03.471Z,13.67
2019-04-30T23:05:12.079Z,13.00
2019-04-30T23:07:56.569Z,14.63
2019-04-30T23:10:41.295Z,13.67
2019-04-30T23:13:26.259Z,14.17
2019-04-30T23:16:11.596Z,14.43
2019-04-30T23:18:57.159Z,15.00
2019-04-30T23:21:41.564Z,15.70
2019-04-30T23:24:35.396Z,16.20
2019-04-30T23:27:20.372Z,16.03
2019-04-30T23:30:06.304Z,15.40
2019-04-30T23:32:51.454Z,15.37
2019-04-30T23:35:45.162Z,15.30
2019-04-30T23:38:29.935Z,16.77
2019-04-30T23:41:14.841Z,16.30
2019-04-30T23:44:00.304Z,17.27
2019-04-30T23:46:53.855Z,17.57
2019-04-30T23:49:38.794Z,16.13
2019-04-30T23:52:23.377Z,15.03
2019-04-30T23:55:07.986Z,15.87
2019-04-30T23:57:52.889Z,15.37
